أريحا, الأردن

08:59 AM EEST on êèنêè 05, 2015 (GMT +0300)
jordan | | Change Station
CLOSE
Current Station
Personal Weather Stations
Location: Balqa, BALQA
Elevation: -780 ft
Nearby Weather Stations

Elev -780 ft 31.81 °N, 35.64 °E | Updated 14 minutes ago

Clear
صافية
93.6 °F
Feels Like 96 °F
N
3.8
ريح متغير ريح from ESE

هذا اليوم
High -- | Low -- °F
--% Chance of Precip.
Yesterday
High -- | Low -- °F
Precip. -- في
5:37 AM 7:47 PM
الأحدب الأخير, 87% visible
الضغط 29.92 في
وضوح الرؤية -9999.0 أميال
سحابات
مؤشر الحرارة 96 °F
نقطة الندى 64 °F
الرطوبة 38%
Rainfall 0.00 في
عمق الثلج Not available.
الأشعة فوق البنفسجية Not available.
Pollen Not available.
جودة الهواء Not available.
Flu Activity Not available.
METAR LLBG 050550Z VRB01KT CAVOK 26/18 Q1013 NOSIG

More Conditions Fewer Conditions

الضغط 29.92 في
وضوح الرؤية -9999.0 أميال
سحابات
مؤشر الحرارة 96 °F
نقطة الندى 64 °F
الرطوبة 38%
Rainfall 0.00 في
عمق الثلج Not available.
الأشعة فوق البنفسجية Not available.
Pollen Not available.
جودة الهواء Not available.
Flu Activity Not available.
METAR LLBG 050550Z VRB01KT CAVOK 26/18 Q1013 NOSIG

More Conditions Fewer Conditions

10-Day Weather Forecast

×

Almanac

علم الفلك

Jul. 05, 2015 Rise Set
Actual Time
Civil Twilight
Nautical Twilight
Astronomical Twilight
قمر
Length Of Visible Light
طول الیوم
Tomorrow will be .
, % of the Moon is Illuminated

Today's Extremes

Country Highs Country Lows

Community

WunderPhotos

Upload Photos

1,835,203 photos uploaded!

WunderBlogs® & News

Nearby

جودة الهواء

  جودة الهواء AQ Index Pollutant
Not available.

عمق الثلج

Station Depth Elevation

Earthquake Activity

City Distance Mag. Time & Date
Minimum magnitude displayed is 2.5.

Coastal Water Temperatures

مكان درجات الحرارة

Stations

Nearby Weather Stations

Station Location الحرارة رياح باردة نقطة الندى الرطوبة ريح Precip. Elev تحديث Type